LFBU/ANG METAR and TAF weather

Enter ICAO airport designator
Station Type Date Time Source
LFBU METAR 2019/02/22 23:00 UTC NOAA

LFBU 222300Z AUTO 02006KT CAVOK 10/05 Q1030


Station Type Date Time Source
LFBU Decoded METAR 2019/02/22 23:00 UTC NOAA

Station name not available
Feb 22, 2019 - 06:00 PM EST / 2019.02.22 2300 UTC
Wind: from the NNE (020 degrees) at 7 MPH (6 KT):0
Visibility: greater than 7 mile(s):0
Temperature: 50 F (10 C)
Dew Point: 41 F (5 C)
Relative Humidity: 71%
Pressure (altimeter): 30.42 in. Hg (1030 hPa)
ob: LFBU 222300Z AUTO 02006KT CAVOK 10/05 Q1030
cycle: 23

Station Type Date Time Source
LFBU TAF 2019/02/22 20:00 UTC NOAA

TAF
AMD LFBU 222100Z 2220/2318 CNL


Example: see airport list